createdAt,value
2022-12-08T00:01:08.707Z,3.00
2022-12-08T00:03:36.499Z,2.90
2022-12-08T00:06:24.484Z,2.90
2022-12-08T00:09:10.251Z,3.00
2022-12-08T00:11:37.302Z,3.10
2022-12-08T00:14:04.009Z,3.10
2022-12-08T00:16:30.759Z,3.10
2022-12-08T00:18:57.486Z,3.20
2022-12-08T00:21:24.188Z,3.10
2022-12-08T00:23:50.925Z,3.10
2022-12-08T00:26:17.715Z,3.20
2022-12-08T00:28:44.609Z,2.70
2022-12-08T00:31:12.111Z,2.40
2022-12-08T00:33:38.940Z,2.50
2022-12-08T00:36:07.653Z,2.70
2022-12-08T00:38:34.867Z,2.80
2022-12-08T00:41:01.693Z,2.50
2022-12-08T00:43:28.444Z,2.60
2022-12-08T00:45:55.355Z,2.80
2022-12-08T00:48:22.104Z,2.80
2022-12-08T00:50:48.779Z,2.90
2022-12-08T00:53:15.529Z,2.90
2022-12-08T00:55:43.271Z,2.90
2022-12-08T00:58:09.929Z,3.00
2022-12-08T01:00:36.598Z,2.90
2022-12-08T01:03:03.487Z,2.90
2022-12-08T01:05:30.254Z,2.80
2022-12-08T01:07:56.950Z,2.40
2022-12-08T01:10:23.657Z,2.10
2022-12-08T01:12:50.339Z,1.90
2022-12-08T01:15:17.005Z,2.10
2022-12-08T01:17:43.682Z,2.30
2022-12-08T01:20:10.519Z,2.50
2022-12-08T01:22:37.317Z,2.40
2022-12-08T01:25:04.274Z,2.10
2022-12-08T01:27:30.973Z,2.10
2022-12-08T01:29:57.814Z,2.30
2022-12-08T01:32:24.529Z,2.40
2022-12-08T01:34:51.314Z,2.60
2022-12-08T01:37:17.988Z,2.60
2022-12-08T01:39:44.838Z,2.60
2022-12-08T01:42:22.889Z,2.60
2022-12-08T01:45:05.174Z,2.60
2022-12-08T01:47:49.589Z,2.50
2022-12-08T01:50:19.424Z,2.50
2022-12-08T01:52:58.756Z,2.50
2022-12-08T01:55:33.465Z,2.50
2022-12-08T01:58:06.074Z,1.90
2022-12-08T02:00:32.749Z,1.90
2022-12-08T02:03:03.267Z,1.90
2022-12-08T02:05:38.462Z,2.00
2022-12-08T02:08:11.158Z,2.00
2022-12-08T02:10:42.630Z,2.10
2022-12-08T02:13:15.104Z,2.00
2022-12-08T02:15:54.296Z,1.90
2022-12-08T02:18:27.169Z,1.90
2022-12-08T02:21:15.952Z,1.70
2022-12-08T02:23:50.974Z,1.80
2022-12-08T02:26:55.613Z,1.80
2022-12-08T02:29:51.828Z,1.60
2022-12-08T02:32:40.268Z,1.80
2022-12-08T02:35:14.815Z,1.70
2022-12-08T02:37:49.616Z,1.70
2022-12-08T02:40:40.198Z,1.80
2022-12-08T02:43:19.185Z,1.60
2022-12-08T02:46:09.300Z,1.80
2022-12-08T02:48:36.198Z,1.80
2022-12-08T02:51:03.078Z,1.70
2022-12-08T02:53:31.816Z,1.80
2022-12-08T02:56:03.911Z,1.70
2022-12-08T02:59:14.172Z,1.80
2022-12-08T03:02:18.588Z,1.80
2022-12-08T03:05:02.718Z,1.90
2022-12-08T03:07:37.122Z,1.90
2022-12-08T03:10:07.177Z,1.90
2022-12-08T03:12:54.234Z,1.80
2022-12-08T03:15:22.170Z,1.70
2022-12-08T03:17:56.101Z,1.60
2022-12-08T03:20:25.757Z,1.40
2022-12-08T03:22:56.444Z,1.40
2022-12-08T03:25:26.042Z,1.30
2022-12-08T03:27:53.639Z,1.40
2022-12-08T03:30:20.318Z,1.40
2022-12-08T03:33:01.722Z,1.30
2022-12-08T03:35:31.468Z,1.20
2022-12-08T03:38:12.998Z,1.10
2022-12-08T03:40:40.397Z,1.10
2022-12-08T03:43:07.994Z,1.00
2022-12-08T03:45:34.950Z,1.00
2022-12-08T03:48:01.869Z,1.20
2022-12-08T03:50:28.683Z,1.20
2022-12-08T03:52:55.415Z,1.20
2022-12-08T03:55:22.073Z,1.20
2022-12-08T03:57:48.751Z,1.30
2022-12-08T04:00:16.946Z,1.20
2022-12-08T04:02:43.856Z,1.10
2022-12-08T04:05:10.570Z,1.10
2022-12-08T04:07:37.377Z,1.30
2022-12-08T04:10:05.637Z,1.40
2022-12-08T04:12:32.655Z,1.60
2022-12-08T04:14:59.364Z,1.50
2022-12-08T04:17:26.025Z,1.30
2022-12-08T04:19:52.762Z,1.50
2022-12-08T04:22:19.416Z,1.40
2022-12-08T04:24:46.087Z,1.40
2022-12-08T04:27:12.751Z,1.20
2022-12-08T04:29:39.533Z,1.00
2022-12-08T04:32:08.314Z,1.10
2022-12-08T04:34:35.002Z,1.10
2022-12-08T04:37:01.654Z,1.20
2022-12-08T04:39:28.388Z,1.30
2022-12-08T04:41:55.041Z,1.50
2022-12-08T04:44:21.731Z,1.60
2022-12-08T04:46:48.418Z,1.70
2022-12-08T04:49:15.238Z,1.70
2022-12-08T04:51:41.913Z,1.70
2022-12-08T04:54:08.855Z,1.60
2022-12-08T04:56:35.508Z,1.50
2022-12-08T04:59:02.658Z,1.50
2022-12-08T05:01:29.413Z,1.40
2022-12-08T05:03:57.209Z,1.40
2022-12-08T05:06:24.495Z,1.40
2022-12-08T05:08:51.376Z,1.20
2022-12-08T05:11:18.371Z,1.20
2022-12-08T05:13:45.098Z,1.20
2022-12-08T05:16:14.135Z,1.10
2022-12-08T05:18:42.351Z,0.90
2022-12-08T05:21:09.659Z,1.00
2022-12-08T05:23:36.469Z,1.20
2022-12-08T05:26:03.180Z,1.30
2022-12-08T05:28:41.228Z,1.40
2022-12-08T05:31:08.398Z,1.50
2022-12-08T05:33:35.122Z,1.30
2022-12-08T05:36:01.814Z,1.20
2022-12-08T05:38:29.404Z,1.20
2022-12-08T05:40:56.161Z,1.20
2022-12-08T05:43:22.835Z,1.20
2022-12-08T05:45:49.556Z,1.30
2022-12-08T05:48:16.790Z,1.40
2022-12-08T05:50:50.297Z,1.50
2022-12-08T05:53:18.753Z,1.00
2022-12-08T05:55:46.453Z,0.70
2022-12-08T05:58:15.309Z,0.70
2022-12-08T06:00:42.785Z,0.80
2022-12-08T06:03:11.722Z,0.80
2022-12-08T06:05:38.803Z,0.80
2022-12-08T06:08:05.858Z,0.90
2022-12-08T06:10:32.541Z,1.00
2022-12-08T06:12:59.241Z,1.10
2022-12-08T06:15:26.560Z,1.10
2022-12-08T06:17:53.284Z,1.20
2022-12-08T06:20:19.954Z,1.10
2022-12-08T06:22:46.665Z,0.90
2022-12-08T06:25:13.339Z,0.90
2022-12-08T06:27:40.105Z,1.00
2022-12-08T06:30:08.599Z,0.90
2022-12-08T06:32:36.737Z,0.30
2022-12-08T06:35:03.693Z,0.30
2022-12-08T06:37:30.350Z,0.30
2022-12-08T06:39:57.044Z,0.40
2022-12-08T06:42:42.327Z,0.50
2022-12-08T06:45:09.574Z,0.60
2022-12-08T06:47:36.328Z,0.70
2022-12-08T06:50:03.681Z,0.50
2022-12-08T06:52:30.648Z,1.30
2022-12-08T06:54:57.393Z,0.50
2022-12-08T06:57:24.634Z,0.50
2022-12-08T06:59:51.433Z,0.70
2022-12-08T07:02:18.200Z,0.50
2022-12-08T07:04:44.995Z,0.20
2022-12-08T07:07:11.736Z,0.10
2022-12-08T07:09:38.469Z,0.30
2022-12-08T07:12:05.299Z,0.50
2022-12-08T07:14:32.053Z,0.80
2022-12-08T07:16:58.921Z,0.70
2022-12-08T07:19:25.749Z,0.40
2022-12-08T07:21:52.501Z,0.60
2022-12-08T07:24:19.354Z,0.80
2022-12-08T07:26:46.124Z,0.90
2022-12-08T07:29:12.953Z,0.70
2022-12-08T07:31:40.349Z,0.80
2022-12-08T07:34:07.112Z,0.90
2022-12-08T07:36:33.929Z,1.10
2022-12-08T07:39:00.619Z,0.70
2022-12-08T07:41:27.351Z,0.70
2022-12-08T07:43:54.594Z,0.70
2022-12-08T07:46:23.096Z,0.90
2022-12-08T07:48:49.969Z,1.00
2022-12-08T07:51:17.157Z,1.10
2022-12-08T07:53:51.582Z,1.10
2022-12-08T07:56:20.124Z,1.20
2022-12-08T07:58:47.031Z,1.10
2022-12-08T08:01:26.005Z,1.20
2022-12-08T08:03:54.818Z,1.30
2022-12-08T08:06:21.544Z,1.40
2022-12-08T08:08:48.302Z,1.60
2022-12-08T08:11:20.848Z,1.30
2022-12-08T08:13:48.513Z,1.20
2022-12-08T08:16:15.541Z,1.40
2022-12-08T08:18:43.485Z,1.60
2022-12-08T08:21:43.008Z,1.80
2022-12-08T08:23:56.944Z,1.40
2022-12-08T08:26:23.689Z,1.60
2022-12-08T08:28:50.444Z,1.80
2022-12-08T08:31:17.207Z,1.80
2022-12-08T08:33:45.074Z,2.00
2022-12-08T08:36:11.900Z,2.00
2022-12-08T08:38:40.073Z,1.90
2022-12-08T08:41:12.942Z,2.10
2022-12-08T08:43:40.051Z,2.20
2022-12-08T08:46:08.912Z,1.90
2022-12-08T08:48:36.243Z,1.80
2022-12-08T08:51:11.114Z,2.00
2022-12-08T08:53:38.632Z,1.90
2022-12-08T08:56:13.655Z,1.80
2022-12-08T08:58:41.057Z,2.00
2022-12-08T09:01:08.285Z,2.10
2022-12-08T09:03:35.033Z,2.30
2022-12-08T09:06:01.833Z,2.40
2022-12-08T09:08:28.654Z,2.40
2022-12-08T09:10:55.466Z,2.10
2022-12-08T09:13:22.485Z,2.20
2022-12-08T09:15:49.517Z,2.00
2022-12-08T09:18:16.298Z,1.90
2022-12-08T09:20:43.048Z,2.10
2022-12-08T09:23:09.756Z,2.30
2022-12-08T09:25:36.789Z,2.20
2022-12-08T09:28:03.837Z,2.40
2022-12-08T09:30:30.909Z,2.50
2022-12-08T09:32:57.594Z,2.40
2022-12-08T09:35:24.301Z,2.30
2022-12-08T09:37:51.007Z,2.60
2022-12-08T09:40:21.346Z,2.80
2022-12-08T09:42:52.763Z,2.90
2022-12-08T09:45:21.198Z,2.70
2022-12-08T09:48:14.521Z,2.80
2022-12-08T09:50:47.238Z,2.80
2022-12-08T09:53:19.291Z,2.90
2022-12-08T09:55:53.780Z,3.00
2022-12-08T09:58:44.510Z,2.90
2022-12-08T10:01:12.142Z,3.00
2022-12-08T10:03:38.875Z,3.10
2022-12-08T10:06:30.258Z,3.20
2022-12-08T10:09:27.757Z,3.30
2022-12-08T10:12:08.153Z,3.30
2022-12-08T10:14:43.683Z,3.40
2022-12-08T10:17:24.515Z,3.40
2022-12-08T10:20:07.275Z,3.40
2022-12-08T10:22:39.860Z,3.20
2022-12-08T10:25:17.893Z,2.90
2022-12-08T10:27:46.952Z,3.00
2022-12-08T10:30:15.388Z,3.00
2022-12-08T10:32:45.135Z,3.20
2022-12-08T10:35:15.051Z,3.40
2022-12-08T10:37:54.664Z,3.50
2022-12-08T10:40:21.382Z,3.50
2022-12-08T10:42:52.157Z,3.60
2022-12-08T10:45:30.932Z,3.80
2022-12-08T10:47:59.987Z,3.80
2022-12-08T10:50:44.457Z,3.70
2022-12-08T10:53:26.008Z,3.70
2022-12-08T10:56:01.817Z,3.80
2022-12-08T10:58:40.426Z,3.90
2022-12-08T11:01:07.212Z,3.90
2022-12-08T11:03:39.289Z,3.90
2022-12-08T11:06:19.568Z,3.90
2022-12-08T11:08:50.647Z,3.90
2022-12-08T11:11:18.380Z,4.00
2022-12-08T11:13:45.188Z,4.00
2022-12-08T11:16:14.969Z,4.00
2022-12-08T11:18:49.905Z,3.60
2022-12-08T11:21:37.266Z,3.60
2022-12-08T11:24:16.293Z,3.70
2022-12-08T11:26:58.585Z,3.90
2022-12-08T11:29:26.204Z,4.00
2022-12-08T11:31:59.547Z,4.10
2022-12-08T11:34:35.306Z,3.50
2022-12-08T11:37:06.097Z,3.60
2022-12-08T11:39:35.771Z,3.70
2022-12-08T11:42:05.140Z,3.80
2022-12-08T11:44:38.320Z,4.10
2022-12-08T11:47:18.069Z,4.20
2022-12-08T11:52:24.060Z,4.40
2022-12-08T11:55:03.054Z,4.10
2022-12-08T11:57:30.105Z,4.10
2022-12-08T11:59:58.419Z,4.20
2022-12-08T12:02:36.102Z,4.30
2022-12-08T12:05:15.362Z,4.40
2022-12-08T12:08:16.835Z,4.50
2022-12-08T12:11:01.692Z,4.40
2022-12-08T12:13:28.300Z,4.40
2022-12-08T12:16:10.381Z,4.50
2022-12-08T12:18:49.995Z,4.50
2022-12-08T12:21:26.364Z,4.60
2022-12-08T12:24:00.620Z,4.60
2022-12-08T12:26:31.294Z,4.40
2022-12-08T12:29:31.699Z,4.30
2022-12-08T12:32:08.775Z,4.20
2022-12-08T12:35:00.322Z,4.00
2022-12-08T12:37:37.804Z,4.10
2022-12-08T12:40:26.036Z,4.10
2022-12-08T12:42:55.829Z,4.10
2022-12-08T12:45:25.369Z,4.30
2022-12-08T12:47:58.857Z,4.30
2022-12-08T12:50:34.675Z,4.20
2022-12-08T12:53:05.913Z,4.10
2022-12-08T12:55:58.048Z,4.10
2022-12-08T12:58:27.847Z,4.30
2022-12-08T13:01:12.944Z,4.20
2022-12-08T13:03:43.486Z,4.20
2022-12-08T13:06:15.082Z,4.30
2022-12-08T13:08:54.522Z,4.40
2022-12-08T13:11:22.286Z,4.50
2022-12-08T13:14:03.838Z,4.60
2022-12-08T13:16:38.686Z,4.60
2022-12-08T13:19:13.782Z,4.50
2022-12-08T13:21:41.005Z,4.70
2022-12-08T13:24:12.808Z,4.60
2022-12-08T13:26:47.483Z,4.70
2022-12-08T13:29:15.796Z,4.70
2022-12-08T13:31:51.507Z,4.60
2022-12-08T13:34:28.917Z,4.50
2022-12-08T13:37:12.264Z,4.40
2022-12-08T13:39:53.645Z,4.40
2022-12-08T13:42:32.319Z,4.40
2022-12-08T13:57:20.926Z,4.30
2022-12-08T13:59:47.657Z,4.30
2022-12-08T14:02:23.299Z,4.30
2022-12-08T14:07:39.975Z,4.30
2022-12-08T14:10:23.335Z,4.30
2022-12-08T14:12:59.396Z,4.30
2022-12-08T14:15:26.681Z,4.30
2022-12-08T14:17:56.163Z,4.30
2022-12-08T14:20:28.824Z,4.20
2022-12-08T14:22:56.398Z,4.20
2022-12-08T14:25:23.696Z,4.20
2022-12-08T14:27:56.336Z,4.20
2022-12-08T14:30:30.531Z,4.20
2022-12-08T14:32:59.822Z,4.10
2022-12-08T14:35:33.672Z,4.10
2022-12-08T14:38:02.554Z,4.10
2022-12-08T14:40:38.121Z,4.10
2022-12-08T14:43:07.750Z,4.00
2022-12-08T14:45:41.474Z,4.00
2022-12-08T14:48:39.287Z,4.00
2022-12-08T14:51:21.331Z,4.00
2022-12-08T14:54:15.321Z,3.90
2022-12-08T14:56:48.740Z,3.90
2022-12-08T14:59:19.899Z,3.90
2022-12-08T15:01:48.508Z,3.90
2022-12-08T15:04:20.020Z,3.80
2022-12-08T15:07:18.662Z,3.80
2022-12-08T15:09:48.821Z,3.80
2022-12-08T15:12:15.552Z,3.60
2022-12-08T15:14:54.142Z,3.40
2022-12-08T15:17:48.845Z,3.40
2022-12-08T15:20:40.784Z,3.50
2022-12-08T15:23:22.384Z,3.40
2022-12-08T15:25:49.917Z,3.40
2022-12-08T15:28:26.667Z,3.30
2022-12-08T15:30:57.203Z,3.30
2022-12-08T15:33:24.156Z,3.30
2022-12-08T15:35:51.859Z,3.40
2022-12-08T15:38:25.691Z,3.10
2022-12-08T15:40:53.562Z,3.10
2022-12-08T15:43:21.212Z,3.10
2022-12-08T15:45:58.313Z,3.00
2022-12-08T15:48:28.383Z,2.90
2022-12-08T15:50:56.224Z,2.80
2022-12-08T15:53:23.301Z,2.80
2022-12-08T15:56:18.905Z,2.80
2022-12-08T15:58:55.166Z,2.90
2022-12-08T16:01:22.369Z,2.80
2022-12-08T16:09:32.098Z,2.70
2022-12-08T16:12:18.063Z,2.50
2022-12-08T16:15:47.059Z,2.40
2022-12-08T16:17:32.168Z,2.40
2022-12-08T16:19:59.832Z,2.50
2022-12-08T16:25:19.307Z,2.60
2022-12-08T16:30:34.706Z,2.70
2022-12-08T16:33:01.601Z,2.70
2022-12-08T16:35:28.495Z,2.60
2022-12-08T16:37:55.202Z,2.60
2022-12-08T16:40:22.154Z,2.60
2022-12-08T16:42:50.306Z,2.60
2022-12-08T16:45:19.932Z,2.60
2022-12-08T16:47:58.413Z,2.60
2022-12-08T16:50:27.373Z,2.60
2022-12-08T16:53:13.526Z,2.60
2022-12-08T16:55:40.762Z,2.60
2022-12-08T16:58:07.454Z,2.60
2022-12-08T17:00:37.957Z,2.60
2022-12-08T17:03:07.977Z,2.50
2022-12-08T17:05:34.860Z,2.20
2022-12-08T17:08:01.663Z,2.20
2022-12-08T17:10:30.197Z,2.20
2022-12-08T17:12:57.340Z,2.00
2022-12-08T17:15:25.635Z,1.80
2022-12-08T17:17:53.450Z,1.90
2022-12-08T17:20:27.085Z,2.00
2022-12-08T17:22:58.359Z,2.00
2022-12-08T17:25:26.760Z,1.90
2022-12-08T17:27:53.745Z,1.90
2022-12-08T17:30:20.507Z,2.10
2022-12-08T17:32:47.249Z,2.20
2022-12-08T17:35:15.115Z,2.20
2022-12-08T17:37:43.109Z,2.30
2022-12-08T17:40:10.476Z,2.30
2022-12-08T17:42:38.607Z,2.30
2022-12-08T17:45:07.367Z,2.20
2022-12-08T17:47:34.281Z,2.30
2022-12-08T17:50:00.959Z,2.20
2022-12-08T17:52:28.061Z,2.10
2022-12-08T17:54:54.824Z,1.90
2022-12-08T17:57:21.747Z,1.90
2022-12-08T17:59:48.412Z,2.00
2022-12-08T18:02:15.171Z,2.00
2022-12-08T18:04:42.111Z,2.00
2022-12-08T18:07:08.889Z,2.00
2022-12-08T18:09:35.668Z,2.00
2022-12-08T18:12:02.435Z,2.00
2022-12-08T18:14:29.365Z,2.00
2022-12-08T18:16:56.202Z,2.00
2022-12-08T18:19:23.048Z,2.00
2022-12-08T18:21:49.815Z,2.00
2022-12-08T18:24:20.792Z,2.00
2022-12-08T18:26:48.422Z,2.00
2022-12-08T18:29:15.192Z,2.00
2022-12-08T18:31:42.009Z,1.90
2022-12-08T18:34:08.721Z,1.80
2022-12-08T18:36:35.451Z,1.70
2022-12-08T18:39:07.189Z,1.70
2022-12-08T18:41:37.236Z,1.60
2022-12-08T18:44:04.113Z,1.60
2022-12-08T18:46:30.874Z,1.50
2022-12-08T18:48:58.100Z,1.40
2022-12-08T18:51:24.903Z,1.40
2022-12-08T18:53:52.357Z,1.40
2022-12-08T18:56:23.840Z,1.40
2022-12-08T18:58:50.573Z,1.10
2022-12-08T19:01:18.111Z,1.10
2022-12-08T19:03:58.484Z,1.20
2022-12-08T19:06:32.716Z,1.40
2022-12-08T19:08:59.439Z,1.40
2022-12-08T19:11:28.903Z,1.40
2022-12-08T19:13:55.990Z,1.40
2022-12-08T19:16:23.377Z,1.30
2022-12-08T19:18:50.280Z,1.30
2022-12-08T19:21:18.639Z,1.30
2022-12-08T19:23:45.348Z,1.30
2022-12-08T19:26:12.427Z,1.30
2022-12-08T19:28:41.139Z,1.20
2022-12-08T19:31:09.895Z,1.20
2022-12-08T19:33:38.142Z,1.20
2022-12-08T19:36:10.325Z,1.10
2022-12-08T19:38:55.680Z,1.10
2022-12-08T19:41:42.208Z,1.10
2022-12-08T19:44:52.899Z,1.10
2022-12-08T19:47:28.831Z,1.00
2022-12-08T19:50:15.902Z,1.10
2022-12-08T19:52:43.384Z,1.00
2022-12-08T19:55:10.696Z,0.90
2022-12-08T19:57:37.482Z,0.80
2022-12-08T20:00:05.954Z,0.70
2022-12-08T20:02:32.817Z,0.60
2022-12-08T20:04:59.571Z,0.70
2022-12-08T20:07:26.358Z,0.60
2022-12-08T20:09:53.133Z,0.60
2022-12-08T20:12:19.836Z,0.40
2022-12-08T20:14:46.577Z,0.40
2022-12-08T20:17:13.346Z,0.40
2022-12-08T20:19:40.157Z,0.40
2022-12-08T20:22:06.843Z,0.50
2022-12-08T20:24:33.694Z,0.60
2022-12-08T20:27:00.436Z,0.60
2022-12-08T20:29:27.150Z,0.70
2022-12-08T20:31:53.911Z,0.50
2022-12-08T20:34:20.668Z,0.10
2022-12-08T20:36:47.592Z,-0.10
2022-12-08T20:39:16.495Z,0.00
2022-12-08T20:41:44.671Z,0.20
2022-12-08T20:44:11.556Z,0.20
2022-12-08T20:46:46.308Z,0.20
2022-12-08T20:49:16.414Z,0.20
2022-12-08T20:51:44.472Z,0.00
2022-12-08T20:54:11.514Z,0.10
2022-12-08T20:56:42.100Z,0.30
2022-12-08T20:59:18.107Z,0.40
2022-12-08T21:01:45.116Z,0.50
2022-12-08T21:04:12.921Z,0.50
2022-12-08T21:06:39.980Z,0.50
2022-12-08T21:09:07.258Z,0.50
2022-12-08T21:11:34.195Z,0.70
2022-12-08T21:14:01.231Z,0.70
2022-12-08T21:16:28.330Z,0.60
2022-12-08T21:18:55.343Z,0.40
2022-12-08T21:21:22.342Z,0.30
2022-12-08T21:23:49.233Z,0.30
2022-12-08T21:26:19.295Z,0.30
2022-12-08T21:28:46.711Z,0.40
2022-12-08T21:31:16.499Z,0.50
2022-12-08T21:33:43.426Z,0.50
2022-12-08T21:36:17.120Z,0.40
2022-12-08T21:38:44.632Z,0.10
2022-12-08T21:41:14.218Z,0.30
2022-12-08T21:43:42.128Z,0.50
2022-12-08T21:46:20.755Z,0.60
2022-12-08T21:48:47.735Z,0.50
2022-12-08T21:51:14.560Z,0.60
2022-12-08T21:53:41.374Z,0.70
2022-12-08T21:56:09.584Z,0.70
2022-12-08T21:58:36.359Z,0.80
2022-12-08T22:01:11.340Z,0.70
2022-12-08T22:03:40.517Z,0.80
2022-12-08T22:06:13.137Z,0.80
2022-12-08T22:08:40.836Z,0.80
2022-12-08T22:11:10.012Z,0.90
2022-12-08T22:13:39.014Z,0.80
2022-12-08T22:16:08.646Z,0.90
2022-12-08T22:18:36.293Z,0.90
2022-12-08T22:21:16.367Z,0.90
2022-12-08T22:23:44.467Z,0.70
2022-12-08T22:26:11.883Z,0.70
2022-12-08T22:28:41.527Z,0.80
2022-12-08T22:31:21.033Z,0.80
2022-12-08T22:33:49.952Z,0.70
2022-12-08T22:36:23.359Z,0.70
2022-12-08T22:38:51.022Z,0.70
2022-12-08T22:41:20.821Z,0.70
2022-12-08T22:43:49.174Z,0.70
2022-12-08T22:46:24.372Z,0.70
2022-12-08T22:48:52.348Z,0.70
2022-12-08T22:51:19.434Z,0.70
2022-12-08T22:53:47.504Z,0.70
2022-12-08T22:56:16.010Z,0.70
2022-12-08T22:58:44.491Z,0.70
2022-12-08T23:01:26.818Z,0.70
2022-12-08T23:03:53.848Z,0.70
2022-12-08T23:06:21.114Z,0.70
2022-12-08T23:08:48.410Z,0.70
2022-12-08T23:11:15.419Z,0.70
2022-12-08T23:13:42.280Z,0.70
2022-12-08T23:16:10.980Z,0.70
2022-12-08T23:18:41.645Z,0.50
2022-12-08T23:21:12.650Z,0.40
2022-12-08T23:23:39.622Z,0.50
2022-12-08T23:26:17.033Z,0.60
2022-12-08T23:28:44.040Z,0.60
2022-12-08T23:31:11.130Z,0.60
2022-12-08T23:33:37.880Z,0.70
2022-12-08T23:36:05.093Z,0.70
2022-12-08T23:38:32.093Z,0.70
2022-12-08T23:41:04.765Z,0.70
2022-12-08T23:43:31.578Z,0.60
2022-12-08T23:45:58.355Z,0.50
2022-12-08T23:48:25.604Z,0.50
2022-12-08T23:50:52.711Z,0.50
2022-12-08T23:53:19.449Z,0.60
2022-12-08T23:55:46.114Z,0.60
2022-12-08T23:58:12.805Z,0.60
